< Typhoon 199712 1997 Season Typhoon 199714 >
Typhoon 199713 (WINNIE)
General InformationTrack Information on Google MapsDetailed Wind InformationList of All Images || Disaster Info.ResourceGoogle EarthGE AnimationAtom FeedGeoJSON
Detalied Best Track (Time Zone = UTC)
Year Month Day Hour Lat. Long. Pressure (hPa) Wind (kt) Class Image Chart
1997 8 6 06 6.5 167.0 1008 0 2 Image Chart
1997 8 6 12 7.0 166.0 1008 0 2 Image Chart
1997 8 6 18 7.9 164.8 1006 0 2 Image Chart
1997 8 7 00 8.7 163.4 1006 0 2 Image Chart
1997 8 7 06 9.2 162.0 1006 0 2 Image Chart
1997 8 7 12 9.8 160.8 1006 0 2 Image Chart
1997 8 7 18 10.5 159.8 1006 0 2 Image Chart
1997 8 8 00 11.2 158.9 1006 0 2 Image Chart
1997 8 8 06 11.9 158.3 1006 0 2 Image Chart
1997 8 8 12 12.6 157.4 1004 0 2 Image Chart
1997 8 8 18 13.6 156.4 1002 0 2 Image Chart
1997 8 9 00 14.2 155.7 1000 0 2 Image Chart
1997 8 9 06 14.5 155.3 998 0 2 Image Chart
1997 8 9 12 14.8 155.0 996 35 3 Image Chart
1997 8 9 18 15.1 154.5 994 40 3 Image Chart
1997 8 10 00 15.5 153.8 990 45 3 Image Chart
1997 8 10 06 15.8 152.9 985 50 4 Image Chart
1997 8 10 12 16.0 151.8 980 55 4 Image Chart
1997 8 10 18 16.1 151.1 975 60 4 Image Chart
1997 8 11 00 16.2 150.2 970 65 5 Image Chart
1997 8 11 06 16.3 149.5 960 75 5 Image Chart
1997 8 11 12 16.6 148.8 950 80 5 Image Chart
1997 8 11 18 16.8 148.1 940 85 5 Image Chart
1997 8 12 00 17.2 147.2 930 90 5 Image Chart
1997 8 12 06 17.8 146.0 920 95 5 Image Chart
1997 8 12 12 18.1 144.9 915 100 5 Image Chart
1997 8 12 18 18.4 143.9 915 100 5 Image Chart
1997 8 13 00 18.8 143.2 915 100 5 Image Chart
1997 8 13 06 19.7 142.3 915 100 5 Image Chart
1997 8 13 12 20.1 141.3 920 95 5 Image Chart
1997 8 13 18 20.6 140.3 920 95 5 Image Chart
1997 8 14 00 21.0 139.5 925 95 5 Image Chart
1997 8 14 06 21.6 138.9 930 90 5 Image Chart
1997 8 14 12 22.2 137.8 935 90 5 Image Chart
1997 8 14 18 22.4 136.6 940 85 5 Image Chart
1997 8 15 00 22.6 135.8 945 85 5 Image Chart
1997 8 15 06 23.0 134.9 945 85 5 Image Chart
1997 8 15 12 23.3 134.1 945 85 5 Image Chart
1997 8 15 15 23.5 133.6 945 85 5 Image Chart
1997 8 15 18 23.6 132.9 945 85 5 Image Chart
1997 8 15 21 23.6 132.6 945 85 5 Image Chart
1997 8 16 00 23.6 132.1 945 85 5 Image Chart
1997 8 16 03 23.9 131.6 945 85 5 Image Chart
1997 8 16 06 24.1 131.1 945 85 5 Image Chart
1997 8 16 09 24.0 130.7 945 85 5 Image Chart
1997 8 16 12 24.0 130.2 945 85 5 Image Chart
1997 8 16 15 24.0 129.8 945 85 5 Image Chart
1997 8 16 18 24.2 129.3 945 85 5 Image Chart
1997 8 16 21 24.5 128.8 945 85 5 Image Chart
1997 8 17 00 24.8 128.3 945 85 5 Image Chart
1997 8 17 03 24.9 127.8 945 85 5 Image Chart
1997 8 17 06 25.3 127.1 945 85 5 Image Chart
1997 8 17 09 25.4 126.5 945 85 5 Image Chart
1997 8 17 12 25.4 126.0 950 80 5 Image Chart
1997 8 17 15 25.6 125.5 950 80 5 Image Chart
1997 8 17 18 25.9 124.9 950 80 5 Image Chart
1997 8 17 21 26.3 124.6 950 80 5 Image Chart
1997 8 18 00 26.6 124.1 955 75 5 Image Chart
1997 8 18 03 27.1 123.3 955 75 5 Image Chart
1997 8 18 06 27.3 122.5 960 75 5 Image Chart
1997 8 18 09 27.5 122.2 960 75 5 Image Chart
1997 8 18 12 28.0 121.9 960 75 5 Image Chart
1997 8 18 18 29.2 120.6 965 70 5 Image Chart
1997 8 19 00 30.1 119.3 975 60 4 Image Chart
1997 8 19 06 31.4 118.6 985 50 4 Image Chart
1997 8 19 12 32.6 118.1 992 45 3 Image Chart
1997 8 19 18 33.6 117.9 992 40 3 Image Chart
1997 8 20 00 35.2 118.2 994 0 2 Image Chart
1997 8 20 06 36.7 119.1 996 0 2 Image Chart
1997 8 20 12 38.5 120.1 996 0 6 Image Chart
1997 8 20 18 39.7 121.3 996 0 6 Image Chart
1997 8 21 00 42.0 123.7 994 0 6 Image Chart
1997 8 21 06 43.8 125.5 990 0 6 Image Chart
1997 8 21 12 44.6 127.1 984 0 6 Image Chart
1997 8 21 18 45.4 128.8 986 0 6 Image Chart
1997 8 22 00 45.8 130.4 988 0 6 Image Chart
1997 8 22 06 46.2 132.1 990 0 6 Image Chart
1997 8 22 12 46.4 133.6 992 0 6 Image Chart
1997 8 22 18 46.5 134.9 994 0 6 Image Chart
1997 8 23 00 46.0 137.0 996 0 6 Image Chart
1997 8 23 06 44.7 138.5 998 0 6 Image Chart
1997 8 23 12 44.0 138.8 1000 0 6 Image Chart
1997 8 23 18 43.3 139.1 1000 0 6 Image Chart
1997 8 24 00 42.7 139.4 1002 0 6 Image Chart
1997 8 24 06 41.6 139.4 1004 0 6 Image Chart
1997 8 24 12 41.0 139.1 1006 0 6 Image Chart
1997 8 24 18 40.6 139.0 1006 0 6 Image Chart
1997 8 25 00 40.3 138.6 1008 0 6 Image Chart
1997 8 25 06 40.0 137.9 1008 0 6 Image Chart
Japan Meteorological Agency Best Track Data | Correction Date : 1998-01-19
< Typhoon 199712 1997 Season Typhoon 199714 >

Help